Time;durP1;ratioP1;P1;durP2;ratioP2;P2;SDS_P1;SDS_P2;PMS_P1;PMS_P2;Temp;Humidity;BMP_temperature;BMP_pressure;BME280_temperature;BME280_humidity;BME280_pressure;Samples;Min_cycle;Max_cycle;Signal;HPM_P1;HPM_P2
2022/06/13 00:00:08;;;;;;;7.32;5.38;;;;;;;;;;5053544;28;20017;-37
2022/06/13 00:02:34;;;;;;;8.15;5.35;;;;;;;;;;5072060;28;20029;-37
2022/06/13 00:04:59;;;;;;;5.75;5.20;;;;;;;;;;5054216;28;20489;-37
2022/06/13 00:07:25;;;;;;;6.65;5.22;;;;;;;;;;5071941;28;20056;-38
2022/06/13 00:09:50;;;;;;;9.15;4.90;;;;;;;;;;5071602;28;20078;-37
2022/06/13 00:12:15;;;;;;;7.20;5.75;;;;;;;;;;5063847;28;20020;-37
2022/06/13 00:14:41;;;;;;;9.43;5.45;;;;;;;;;;5091605;28;20058;-37
2022/06/13 00:17:06;;;;;;;6.53;4.90;;;;;;;;;;5091774;28;20066;-38
2022/06/13 00:19:31;;;;;;;9.52;5.07;;;;;;;;;;5092344;28;20054;-37
2022/06/13 00:21:57;;;;;;;6.13;4.85;;;;;;;;;;5092043;28;20095;-37
2022/06/13 00:24:22;;;;;;;6.57;5.15;;;;;;;;;;5090694;28;20024;-37
2022/06/13 00:26:47;;;;;;;5.88;5.10;;;;;;;;;;5092040;28;20093;-38
2022/06/13 00:29:13;;;;;;;5.47;4.90;;;;;;;;;;5091746;28;20355;-37
2022/06/13 00:31:38;;;;;;;5.28;4.65;;;;;;;;;;5091525;28;20095;-37
2022/06/13 00:34:03;;;;;;;5.88;5.03;;;;;;;;;;5092130;28;20058;-37
2022/06/13 00:36:29;;;;;;;7.60;4.88;;;;;;;;;;5091950;28;20023;-37
2022/06/13 00:38:55;;;;;;;5.85;4.70;;;;;;;;;;5092056;28;20016;-39
2022/06/13 00:41:23;;;;;;;5.50;4.93;;;;;;;;;;5073381;28;20039;-37
2022/06/13 00:43:48;;;;;;;6.45;5.30;;;;;;;;;;5091496;28;20038;-38
2022/06/13 00:46:25;;;;;;;5.70;4.32;;;;;;;;;;5091442;28;20028;-38
2022/06/13 00:48:56;;;;;;;5.63;5.03;;;;;;;;;;5091552;28;20028;-37
2022/06/13 00:51:22;;;;;;;5.32;4.82;;;;;;;;;;5074111;28;20021;-37
2022/06/13 00:53:47;;;;;;;6.68;5.10;;;;;;;;;;5073478;28;20086;-38
2022/06/13 00:56:18;;;;;;;7.72;4.68;;;;;;;;;;5073357;28;20028;-37
2022/06/13 00:58:45;;;;;;;7.22;5.05;;;;;;;;;;5091411;28;20028;-37
2022/06/13 01:01:11;;;;;;;9.52;5.45;;;;;;;;;;5091799;28;20062;-37
2022/06/13 01:03:37;;;;;;;10.70;4.57;;;;;;;;;;5091441;28;20020;-37
2022/06/13 01:06:04;;;;;;;5.13;4.63;;;;;;;;;;5091746;28;20493;-37
2022/06/13 01:08:31;;;;;;;7.43;5.10;;;;;;;;;;5091221;28;20028;-37
2022/06/13 01:11:18;;;;;;;7.50;5.07;;;;;;;;;;5091580;28;20024;-37
2022/06/13 01:14:03;;;;;;;7.03;4.78;;;;;;;;;;5053203;28;20379;-37
2022/06/13 01:16:48;;;;;;;5.28;4.78;;;;;;;;;;5071205;28;20028;-37
2022/06/13 01:19:16;;;;;;;5.00;4.30;;;;;;;;;;5071185;28;20060;-37
2022/06/13 01:22:07;;;;;;;6.00;5.40;;;;;;;;;;5071125;28;20027;-37
2022/06/13 01:24:51;;;;;;;6.10;4.55;;;;;;;;;;5053099;28;20123;-37
2022/06/13 01:27:26;;;;;;;8.50;4.80;;;;;;;;;;5055203;28;20052;-41
2022/06/13 01:30:11;;;;;;;6.68;5.38;;;;;;;;;;5056720;28;20020;-38
2022/06/13 01:32:42;;;;;;;5.53;4.20;;;;;;;;;;5074821;28;20072;-37
2022/06/13 01:35:20;;;;;;;11.63;4.97;;;;;;;;;;5074592;28;20028;-40
2022/06/13 01:38:01;;;;;;;4.75;4.05;;;;;;;;;;5074788;28;20052;-37
2022/06/13 01:40:45;;;;;;;7.45;5.15;;;;;;;;;;5074604;28;20025;-37
2022/06/13 01:43:17;;;;;;;6.63;5.03;;;;;;;;;;5074724;28;20063;-37
2022/06/13 01:45:46;;;;;;;4.80;4.30;;;;;;;;;;5056764;28;20050;-37
2022/06/13 01:48:17;;;;;;;7.50;4.70;;;;;;;;;;5056499;28;20150;-37
2022/06/13 01:50:48;;;;;;;5.03;4.53;;;;;;;;;;5074816;28;20376;-38
2022/06/13 01:53:21;;;;;;;4.90;4.28;;;;;;;;;;5056469;28;20037;-37
2022/06/13 01:55:55;;;;;;;7.82;5.07;;;;;;;;;;5074640;28;20024;-37
2022/06/13 01:58:20;;;;;;;7.15;5.03;;;;;;;;;;5074450;28;20016;-37
2022/06/13 02:00:48;;;;;;;6.40;4.78;;;;;;;;;;5074304;28;20028;-38
2022/06/13 02:03:27;;;;;;;8.27;4.78;;;;;;;;;;5056420;28;20020;-37
2022/06/13 02:05:55;;;;;;;5.65;4.88;;;;;;;;;;5056538;28;20745;-37
2022/06/13 02:08:23;;;;;;;6.65;5.55;;;;;;;;;;5056424;28;20494;-37
2022/06/13 02:11:04;;;;;;;5.97;5.28;;;;;;;;;;5055943;28;20024;-37
2022/06/13 02:13:48;;;;;;;8.23;5.43;;;;;;;;;;5073880;28;20028;-37
2022/06/13 02:16:26;;;;;;;5.45;4.35;;;;;;;;;;5073813;28;20029;-38
2022/06/13 02:18:57;;;;;;;6.20;5.22;;;;;;;;;;5073715;28;20098;-37
2022/06/13 02:21:27;;;;;;;5.65;4.90;;;;;;;;;;5072749;28;20566;-37
2022/06/13 02:23:55;;;;;;;6.47;5.68;;;;;;;;;;5073776;28;20020;-37
2022/06/13 02:26:23;;;;;;;6.63;5.45;;;;;;;;;;5073706;28;20027;-38
2022/06/13 02:28:54;;;;;;;6.25;5.53;;;;;;;;;;5073839;28;20418;-37
2022/06/13 02:31:22;;;;;;;8.75;5.63;;;;;;;;;;5072559;28;20024;-37
2022/06/13 02:34:05;;;;;;;8.75;5.53;;;;;;;;;;5072459;28;20039;-40
2022/06/13 02:36:45;;;;;;;8.40;5.30;;;;;;;;;;5072494;28;20077;-37
2022/06/13 02:39:14;;;;;;;5.25;4.75;;;;;;;;;;5073086;28;20494;-37
2022/06/13 02:41:43;;;;;;;9.07;4.78;;;;;;;;;;5072370;28;20021;-37
2022/06/13 02:44:12;;;;;;;5.93;5.00;;;;;;;;;;5073702;28;20024;-37
2022/06/13 02:46:42;;;;;;;6.57;5.00;;;;;;;;;;5073510;28;20029;-37
2022/06/13 02:49:27;;;;;;;6.03;4.97;;;;;;;;;;5071964;28;20025;-38
2022/06/13 02:52:05;;;;;;;8.10;5.38;;;;;;;;;;5073076;28;20040;-37
2022/06/13 02:54:48;;;;;;;6.55;5.25;;;;;;;;;;5073387;28;20036;-37
2022/06/13 02:57:27;;;;;;;6.15;4.95;;;;;;;;;;5073119;28;20039;-37
2022/06/13 03:00:02;;;;;;;6.75;4.90;;;;;;;;;;5073195;28;20035;-37
2022/06/13 03:02:32;;;;;;;4.50;4.10;;;;;;;;;;5071736;28;20020;-37
2022/06/13 03:05:00;;;;;;;7.38;5.13;;;;;;;;;;5073323;28;20027;-37
2022/06/13 03:07:47;;;;;;;6.47;4.82;;;;;;;;;;5071853;28;20093;-37
2022/06/13 03:10:16;;;;;;;10.10;5.03;;;;;;;;;;5072837;28;20032;-39
2022/06/13 03:12:41;;;;;;;6.97;4.28;;;;;;;;;;5084991;28;20127;-37
2022/06/13 03:15:13;;;;;;;5.38;4.68;;;;;;;;;;5074927;28;20510;-37
2022/06/13 03:17:42;;;;;;;10.60;4.80;;;;;;;;;;5093006;28;20174;-37
2022/06/13 03:20:08;;;;;;;6.57;4.55;;;;;;;;;;5057857;28;20165;-37
2022/06/13 03:22:45;;;;;;;4.20;3.75;;;;;;;;;;5093032;28;20024;-37
2022/06/13 03:25:11;;;;;;;4.90;4.40;;;;;;;;;;5092870;28;20027;-37
2022/06/13 03:27:39;;;;;;;5.20;4.43;;;;;;;;;;5074772;28;20283;-37
2022/06/13 03:30:07;;;;;;;6.68;4.63;;;;;;;;;;5092648;28;20439;-38
2022/06/13 03:32:40;;;;;;;6.47;4.00;;;;;;;;;;5092491;28;20050;-40
2022/06/13 03:35:10;;;;;;;4.68;3.92;;;;;;;;;;5092750;28;20020;-37
2022/06/13 03:37:38;;;;;;;8.75;4.57;;;;;;;;;;5092494;28;20129;-37
2022/06/13 03:40:04;;;;;;;6.53;3.70;;;;;;;;;;5092685;28;20047;-37
2022/06/13 03:42:33;;;;;;;4.32;3.90;;;;;;;;;;5074566;28;20386;-37
2022/06/13 03:45:02;;;;;;;5.15;3.78;;;;;;;;;;5092402;28;20372;-37
2022/06/13 03:47:27;;;;;;;4.25;3.85;;;;;;;;;;5074296;28;20127;-38
2022/06/13 03:49:56;;;;;;;4.18;3.78;;;;;;;;;;5072772;28;20107;-39
2022/06/13 03:52:21;;;;;;;;;;;;;;;;;;5074577;28;20020;-38
2022/06/13 03:54:57;;;;;;;5.82;3.80;;;;;;;;;;5074374;28;20282;-37
2022/06/13 03:57:22;;;;;;;4.00;3.60;;;;;;;;;;5074177;28;20028;-39
2022/06/13 03:59:51;;;;;;;5.43;3.42;;;;;;;;;;5092330;28;20360;-39
2022/06/13 04:02:18;;;;;;;4.95;3.65;;;;;;;;;;5092381;28;20111;-37
2022/06/13 04:04:45;;;;;;;6.63;4.20;;;;;;;;;;5073736;28;20368;-40
2022/06/13 04:07:10;;;;;;;4.40;3.70;;;;;;;;;;5092208;28;20020;-37
2022/06/13 04:09:45;;;;;;;5.65;3.67;;;;;;;;;;5092156;28;20522;-37
2022/06/13 04:12:13;;;;;;;3.72;3.40;;;;;;;;;;5082414;28;20020;-38
2022/06/13 04:14:57;;;;;;;11.63;3.97;;;;;;;;;;5053927;28;20036;-37
2022/06/13 04:17:25;;;;;;;13.00;4.53;;;;;;;;;;5071658;28;20032;-37
2022/06/13 04:19:53;;;;;;;7.28;3.17;;;;;;;;;;5072145;28;20044;-37
2022/06/13 04:22:37;;;;;;;11.20;3.85;;;;;;;;;;5071942;28;20056;-38
2022/06/13 04:25:16;;;;;;;5.53;3.28;;;;;;;;;;5071774;28;20024;-37
2022/06/13 04:28:02;;;;;;;4.30;2.78;;;;;;;;;;5071571;28;20024;-37
2022/06/13 04:30:28;;;;;;;2.92;2.60;;;;;;;;;;5071958;28;20020;-37
2022/06/13 04:33:13;;;;;;;3.33;2.60;;;;;;;;;;5071642;28;20036;-38
2022/06/13 04:35:39;;;;;;;4.47;2.20;;;;;;;;;;5071687;28;20020;-37
2022/06/13 04:38:08;;;;;;;9.00;2.25;;;;;;;;;;5071976;28;20025;-38
2022/06/13 04:40:35;;;;;;;3.58;1.63;;;;;;;;;;5071801;28;20032;-37
2022/06/13 04:43:02;;;;;;;4.40;2.03;;;;;;;;;;5071675;28;20021;-37
2022/06/13 04:45:46;;;;;;;3.45;2.20;;;;;;;;;;5071600;28;20036;-38
2022/06/13 04:48:12;;;;;;;7.38;2.15;;;;;;;;;;5053632;28;20025;-39
2022/06/13 04:50:41;;;;;;;4.53;2.10;;;;;;;;;;5071734;28;20074;-37
2022/06/13 04:53:11;;;;;;;5.20;2.05;;;;;;;;;;5072038;28;20107;-37
2022/06/13 04:55:41;;;;;;;4.70;2.22;;;;;;;;;;5071397;28;20030;-37
2022/06/13 04:58:33;;;;;;;4.20;1.90;;;;;;;;;;5053652;28;20013;-37
2022/06/13 05:01:01;;;;;;;2.45;1.85;;;;;;;;;;5066899;28;20497;-38
2022/06/13 05:03:29;;;;;;;2.10;1.80;;;;;;;;;;5075303;28;20021;-38
2022/06/13 05:05:56;;;;;;;5.90;2.25;;;;;;;;;;5075520;28;20467;-37
2022/06/13 05:08:32;;;;;;;2.47;1.80;;;;;;;;;;5075467;28;20468;-38
2022/06/13 05:11:05;;;;;;;2.70;2.00;;;;;;;;;;5075196;28;20028;-37
2022/06/13 05:13:30;;;;;;;3.25;1.95;;;;;;;;;;5074597;28;20059;-38
2022/06/13 05:16:11;;;;;;;3.28;2.20;;;;;;;;;;5075117;28;20075;-38
2022/06/13 05:18:46;;;;;;;3.58;2.13;;;;;;;;;;5070454;28;20053;-39
2022/06/13 05:21:17;;;;;;;5.50;2.20;;;;;;;;;;5055029;28;20104;-37
2022/06/13 05:24:09;;;;;;;3.88;2.55;;;;;;;;;;5055062;28;20056;-38
2022/06/13 05:26:34;;;;;;;11.63;2.55;;;;;;;;;;5050388;28;20037;-37
2022/06/13 05:29:00;;;;;;;5.03;2.60;;;;;;;;;;5054940;28;20384;-39
2022/06/13 05:31:26;;;;;;;8.75;2.38;;;;;;;;;;5055018;28;20074;-38
2022/06/13 05:33:51;;;;;;;4.40;2.38;;;;;;;;;;5054819;28;20037;-41
2022/06/13 05:36:19;;;;;;;5.18;2.30;;;;;;;;;;5054509;28;20021;-38
2022/06/13 05:38:44;;;;;;;2.63;2.17;;;;;;;;;;5054972;28;20134;-37
2022/06/13 05:41:09;;;;;;;6.25;2.30;;;;;;;;;;5055315;28;20039;-38
2022/06/13 05:43:34;;;;;;;5.28;2.35;;;;;;;;;;5067592;28;20048;-40
2022/06/13 05:46:00;;;;;;;5.07;1.92;;;;;;;;;;5071778;28;20090;-38
2022/06/13 05:48:26;;;;;;;8.75;2.38;;;;;;;;;;5059604;28;20474;-37
2022/06/13 05:50:52;;;;;;;18.83;2.80;;;;;;;;;;5061464;28;20472;-40
2022/06/13 05:53:20;;;;;;;5.45;2.20;;;;;;;;;;5064757;28;20044;-39
2022/06/13 05:55:46;;;;;;;3.13;1.98;;;;;;;;;;5069627;28;20028;-37
2022/06/13 05:58:12;;;;;;;6.13;2.63;;;;;;;;;;5071060;28;20028;-39
2022/06/13 06:00:40;;;;;;;4.13;1.90;;;;;;;;;;5071880;28;20451;-38
2022/06/13 06:03:05;;;;;;;4.13;1.95;;;;;;;;;;5073099;28;20498;-39
2022/06/13 06:05:30;;;;;;;7.97;2.17;;;;;;;;;;5069383;28;20025;-37
2022/06/13 06:07:56;;;;;;;16.92;3.45;;;;;;;;;;5065169;28;20012;-38
2022/06/13 06:10:24;;;;;;;8.07;2.25;;;;;;;;;;5057902;28;20029;-39
2022/06/13 06:12:50;;;;;;;8.02;2.25;;;;;;;;;;5064111;28;20094;-37
2022/06/13 06:15:15;;;;;;;6.05;2.28;;;;;;;;;;5057371;28;20036;-37
2022/06/13 06:17:40;;;;;;;7.30;2.10;;;;;;;;;;5064129;28;20436;-39
2022/06/13 06:20:06;;;;;;;6.47;2.93;;;;;;;;;;5087893;28;20048;-37
2022/06/13 06:22:31;;;;;;;5.57;2.30;;;;;;;;;;5090756;28;20039;-37
2022/06/13 06:24:57;;;;;;;5.53;2.00;;;;;;;;;;5086689;28;20074;-37
2022/06/13 06:27:23;;;;;;;4.05;1.80;;;;;;;;;;5082840;28;20035;-39
2022/06/13 06:29:48;;;;;;;2.77;2.20;;;;;;;;;;5088391;28;20023;-39
2022/06/13 06:32:13;;;;;;;3.08;2.30;;;;;;;;;;5091681;28;20241;-38
2022/06/13 06:34:39;;;;;;;3.13;2.10;;;;;;;;;;5083921;28;20036;-38
2022/06/13 06:37:04;;;;;;;5.05;2.30;;;;;;;;;;5085169;28;20036;-40
2022/06/13 06:39:29;;;;;;;5.30;2.65;;;;;;;;;;5067914;28;20059;-38
2022/06/13 06:41:56;;;;;;;5.07;2.37;;;;;;;;;;5076989;28;20036;-43
2022/06/13 06:44:22;;;;;;;8.98;2.45;;;;;;;;;;5071293;28;20280;-38
2022/06/13 06:46:48;;;;;;;11.55;2.30;;;;;;;;;;5086830;28;20189;-38
2022/06/13 06:49:13;;;;;;;2.55;2.35;;;;;;;;;;5083485;28;20111;-39
2022/06/13 06:51:41;;;;;;;3.45;2.10;;;;;;;;;;5081563;28;20088;-38
2022/06/13 06:59:53;;;;;;;3.40;2.10;;;;;;;;;;5075492;28;20066;-37
2022/06/13 07:02:23;;;;;;;2.88;2.42;;;;;;;;;;5083318;28;20099;-39
2022/06/13 07:04:49;;;;;;;4.88;2.20;;;;;;;;;;5088902;28;20024;-39
2022/06/13 07:07:15;;;;;;;5.20;2.42;;;;;;;;;;5070352;28;20024;-44
2022/06/13 07:09:40;;;;;;;5.95;2.42;;;;;;;;;;5080446;28;20391;-37
2022/06/13 07:12:06;;;;;;;2.58;2.10;;;;;;;;;;5080841;28;20095;-40
2022/06/13 07:14:33;;;;;;;4.25;2.20;;;;;;;;;;5069913;28;20063;-39
2022/06/13 07:17:01;;;;;;;4.30;2.00;;;;;;;;;;5069616;28;20432;-37
2022/06/13 07:19:26;;;;;;;4.28;2.20;;;;;;;;;;5081024;28;20128;-38
2022/06/13 07:21:52;;;;;;;5.68;2.97;;;;;;;;;;5085967;28;20143;-37
2022/06/13 07:24:17;;;;;;;5.43;2.38;;;;;;;;;;5082537;28;20455;-37
2022/06/13 07:26:43;;;;;;;4.35;2.35;;;;;;;;;;5084512;28;20027;-37
2022/06/13 07:29:08;;;;;;;4.93;2.20;;;;;;;;;;5072662;28;20025;-37
2022/06/13 07:31:39;;;;;;;4.30;2.08;;;;;;;;;;5077092;28;20039;-39
2022/06/13 07:34:05;;;;;;;5.32;2.10;;;;;;;;;;5082873;28;20033;-37
2022/06/13 07:36:31;;;;;;;4.00;2.05;;;;;;;;;;5074232;28;20024;-38
2022/06/13 07:38:56;;;;;;;8.57;2.28;;;;;;;;;;5087771;28;20102;-38
2022/06/13 07:41:23;;;;;;;5.55;2.65;;;;;;;;;;5068000;28;20070;-37
2022/06/13 07:43:50;;;;;;;4.30;2.03;;;;;;;;;;5080707;28;20525;-37
2022/06/13 07:46:15;;;;;;;2.72;1.83;;;;;;;;;;5071217;28;20116;-38
2022/06/13 07:48:41;;;;;;;4.18;1.98;;;;;;;;;;5085122;28;20095;-40
2022/06/13 07:51:06;;;;;;;5.77;1.73;;;;;;;;;;5089945;28;20043;-37
2022/06/13 07:53:32;;;;;;;7.60;2.22;;;;;;;;;;5087766;28;20335;-37
2022/06/13 07:55:58;;;;;;;3.35;1.88;;;;;;;;;;5084036;28;20070;-36
2022/06/13 07:58:31;;;;;;;1.83;1.70;;;;;;;;;;5080861;28;20038;-37
2022/06/13 08:00:57;;;;;;;8.85;2.10;;;;;;;;;;5077517;28;20081;-40
2022/06/13 08:03:25;;;;;;;1.70;1.40;;;;;;;;;;5079249;28;20036;-38
2022/06/13 08:05:50;;;;;;;6.07;1.52;;;;;;;;;;5088212;28;20049;-37
2022/06/13 08:08:16;;;;;;;3.63;2.03;;;;;;;;;;5077372;28;20036;-43
2022/06/13 08:10:42;;;;;;;4.18;1.58;;;;;;;;;;5090360;28;20070;-38
2022/06/13 08:13:08;;;;;;;2.35;1.50;;;;;;;;;;5076197;28;20032;-41
2022/06/13 08:15:34;;;;;;;2.22;1.55;;;;;;;;;;5077813;28;20647;-37
2022/06/13 08:17:59;;;;;;;4.37;1.90;;;;;;;;;;5057947;28;20053;-37
2022/06/13 08:20:24;;;;;;;5.30;2.10;;;;;;;;;;5048710;28;20033;-40
2022/06/13 08:22:50;;;;;;;3.00;1.67;;;;;;;;;;5037586;28;20545;-40
2022/06/13 08:25:17;;;;;;;2.25;1.65;;;;;;;;;;5046520;28;20037;-39
2022/06/13 08:27:43;;;;;;;2.60;2.08;;;;;;;;;;5045848;28;20486;-37
2022/06/13 08:30:08;;;;;;;5.27;1.77;;;;;;;;;;5039684;28;20013;-37
2022/06/13 08:32:34;;;;;;;8.15;2.08;;;;;;;;;;5043439;28;20277;-37
2022/06/13 08:34:59;;;;;;;11.93;2.08;;;;;;;;;;5033193;28;20026;-37
2022/06/13 08:37:24;;;;;;;4.70;2.60;;;;;;;;;;5037697;28;20089;-36
2022/06/13 08:39:49;;;;;;;3.97;2.10;;;;;;;;;;5028853;28;20258;-38
2022/06/13 08:42:19;;;;;;;6.93;2.30;;;;;;;;;;5029949;28;20071;-38
2022/06/13 08:44:47;;;;;;;11.88;3.55;;;;;;;;;;5039900;28;20312;-37
2022/06/13 08:47:31;;;;;;;4.80;2.38;;;;;;;;;;5047050;28;20438;-37
2022/06/13 08:50:05;;;;;;;5.63;2.00;;;;;;;;;;5029829;28;20091;-37
2022/06/13 08:52:30;;;;;;;4.93;1.90;;;;;;;;;;5031704;28;20037;-37
2022/06/13 08:54:55;;;;;;;2.43;1.43;;;;;;;;;;5044230;28;20025;-38
2022/06/13 08:57:24;;;;;;;1.97;1.50;;;;;;;;;;5048773;28;20104;-36
2022/06/13 08:59:52;;;;;;;2.50;1.75;;;;;;;;;;5037630;28;20018;-40
2022/06/13 09:02:20;;;;;;;2.97;1.70;;;;;;;;;;5029393;28;20021;-40
2022/06/13 09:04:55;;;;;;;2.10;1.80;;;;;;;;;;5042828;28;20025;-40
2022/06/13 09:07:38;;;;;;;5.20;1.95;;;;;;;;;;5048887;28;20457;-43
2022/06/13 09:10:03;;;;;;;2.33;1.80;;;;;;;;;;5045731;28;20118;-40
2022/06/13 09:12:32;;;;;;;3.35;1.98;;;;;;;;;;5039764;28;20476;-44
2022/06/13 09:15:00;;;;;;;2.10;1.20;;;;;;;;;;5034703;28;20068;-40
2022/06/13 09:17:31;;;;;;;3.58;1.77;;;;;;;;;;5030644;28;20420;-39
2022/06/13 09:20:02;;;;;;;4.40;1.38;;;;;;;;;;5076091;28;20037;-41
2022/06/13 09:22:40;;;;;;;4.05;2.08;;;;;;;;;;5076903;28;20020;-42
2022/06/13 09:25:14;;;;;;;4.40;1.48;;;;;;;;;;5074873;28;20100;-40
2022/06/13 09:27:43;;;;;;;3.10;1.17;;;;;;;;;;5078941;28;20024;-45
2022/06/13 09:30:17;;;;;;;3.33;1.60;;;;;;;;;;5078587;28;20019;-41
2022/06/13 09:32:52;;;;;;;1.27;1.20;;;;;;;;;;5080100;28;20024;-42
2022/06/13 09:35:25;;;;;;;3.08;1.58;;;;;;;;;;5084368;28;20033;-40
2022/06/13 09:37:56;;;;;;;3.50;1.65;;;;;;;;;;5089615;28;20024;-40
2022/06/13 09:40:33;;;;;;;6.40;1.52;;;;;;;;;;5081305;28;20021;-39
2022/06/13 09:43:16;;;;;;;2.90;1.40;;;;;;;;;;5077841;28;20042;-43
2022/06/13 09:45:41;;;;;;;3.28;1.85;;;;;;;;;;5075111;28;20368;-45
2022/06/13 09:48:06;;;;;;;4.35;1.92;;;;;;;;;;5088493;28;20026;-39
2022/06/13 09:50:36;;;;;;;6.17;1.73;;;;;;;;;;5071754;28;20021;-39
2022/06/13 09:53:05;;;;;;;6.05;1.67;;;;;;;;;;5071859;28;20392;-39
2022/06/13 09:55:30;;;;;;;3.58;1.70;;;;;;;;;;5055337;28;20027;-39
2022/06/13 09:57:59;;;;;;;2.77;1.57;;;;;;;;;;5072985;28;20099;-39
2022/06/13 10:03:27;;;;;;;2.30;1.73;;;;;;;;;;5087977;28;20007;-40
2022/06/13 10:05:59;;;;;;;3.45;1.60;;;;;;;;;;5072158;28;20024;-39
2022/06/13 10:08:31;;;;;;;2.30;1.48;;;;;;;;;;5071767;28;20530;-43
2022/06/13 10:11:14;;;;;;;3.03;1.55;;;;;;;;;;5072853;28;20023;-39
2022/06/13 10:13:46;;;;;;;2.22;1.63;;;;;;;;;;5086188;28;20043;-39
2022/06/13 10:16:17;;;;;;;5.18;1.63;;;;;;;;;;5074324;28;20020;-38
2022/06/13 10:18:55;;;;;;;3.25;1.80;;;;;;;;;;5092575;28;20546;-46
2022/06/13 10:21:38;;;;;;;2.53;1.63;;;;;;;;;;5093631;28;20035;-39
2022/06/13 10:24:10;;;;;;;2.17;1.80;;;;;;;;;;5092573;28;20046;-40
2022/06/13 10:26:54;;;;;;;2.42;1.55;;;;;;;;;;5093481;28;20077;-38
2022/06/13 10:29:44;;;;;;;4.97;2.15;;;;;;;;;;5092546;28;20058;-38
2022/06/13 10:32:13;;;;;;;2.03;1.67;;;;;;;;;;5093197;28;20411;-38
2022/06/13 10:34:56;;;;;;;4.20;1.85;;;;;;;;;;5091142;28;20050;-39
2022/06/13 10:37:26;;;;;;;2.95;1.55;;;;;;;;;;5092796;28;20063;-38
2022/06/13 10:39:54;;;;;;;4.75;2.00;;;;;;;;;;5091037;28;20024;-40
2022/06/13 10:42:22;;;;;;;1.98;1.77;;;;;;;;;;5092449;28;20077;-38
2022/06/13 10:44:48;;;;;;;2.87;1.60;;;;;;;;;;5091976;28;20038;-42
2022/06/13 10:47:16;;;;;;;3.08;1.30;;;;;;;;;;5092618;28;20440;-38
2022/06/13 10:49:47;;;;;;;2.42;1.63;;;;;;;;;;5092497;28;20024;-39
2022/06/13 10:52:14;;;;;;;3.85;1.85;;;;;;;;;;5089472;28;20064;-40
2022/06/13 10:54:51;;;;;;;2.25;1.67;;;;;;;;;;5082272;28;20033;-39
2022/06/13 10:57:27;;;;;;;4.25;1.80;;;;;;;;;;5078111;28;20028;-39
2022/06/13 11:00:11;;;;;;;4.70;1.98;;;;;;;;;;5067136;28;20433;-40
2022/06/13 11:02:36;;;;;;;4.80;1.80;;;;;;;;;;5086468;28;20032;-39
2022/06/13 11:05:22;;;;;;;5.22;1.70;;;;;;;;;;5089989;28;20022;-42
2022/06/13 11:08:00;;;;;;;2.55;1.83;;;;;;;;;;5077789;28;20016;-39
2022/06/13 11:10:36;;;;;;;5.43;1.70;;;;;;;;;;5076520;28;20085;-39
2022/06/13 11:13:03;;;;;;;1.80;1.65;;;;;;;;;;5086497;28;20040;-41
2022/06/13 11:24:13;;;;;;;1.75;1.48;;;;;;;;;;5082532;28;20031;-39
2022/06/13 11:29:24;;;;;;;2.00;1.63;;;;;;;;;;5080627;28;20137;-38
2022/06/13 11:31:53;;;;;;;3.97;1.73;;;;;;;;;;5073632;28;20046;-41
2022/06/13 11:34:22;;;;;;;2.70;1.80;;;;;;;;;;5073679;28;20036;-38
2022/06/13 11:37:02;;;;;;;2.55;1.73;;;;;;;;;;5079715;28;20161;-39
2022/06/13 11:39:32;;;;;;;2.25;1.55;;;;;;;;;;5091841;28;20035;-38
2022/06/13 11:41:57;;;;;;;5.30;1.90;;;;;;;;;;5073423;28;20028;-39
2022/06/13 11:44:23;;;;;;;6.30;1.75;;;;;;;;;;5090631;28;20031;-38
2022/06/13 11:46:52;;;;;;;3.90;1.55;;;;;;;;;;5084851;28;20083;-38
2022/06/13 11:49:17;;;;;;;2.00;1.50;;;;;;;;;;5086008;28;20061;-39
2022/06/13 11:51:57;;;;;;;3.50;1.70;;;;;;;;;;5062370;28;20024;-39
2022/06/13 11:54:22;;;;;;;1.83;1.50;;;;;;;;;;5061848;28;20291;-39
2022/06/13 11:56:48;;;;;;;2.65;1.55;;;;;;;;;;5091620;28;20020;-39
2022/06/13 11:59:15;;;;;;;3.50;1.90;;;;;;;;;;5072625;28;20024;-38
2022/06/13 12:01:41;;;;;;;5.40;1.70;;;;;;;;;;5073149;28;20024;-39
2022/06/13 12:04:20;;;;;;;2.97;1.30;;;;;;;;;;5091290;28;20352;-39
2022/06/13 12:06:46;;;;;;;2.92;1.50;;;;;;;;;;5090481;28;20077;-38
2022/06/13 12:09:23;;;;;;;1.92;1.33;;;;;;;;;;5080606;28;20053;-39
2022/06/13 12:11:57;;;;;;;2.40;1.20;;;;;;;;;;5083364;28;20028;-40
2022/06/13 12:14:24;;;;;;;3.85;1.60;;;;;;;;;;5082243;28;20044;-38
2022/06/13 12:16:55;;;;;;;4.72;1.60;;;;;;;;;;5083456;28;20054;-41
2022/06/13 12:19:27;;;;;;;3.88;1.60;;;;;;;;;;5056340;28;20043;-38
2022/06/13 12:21:58;;;;;;;3.70;2.30;;;;;;;;;;5088490;28;20366;-40
2022/06/13 12:24:41;;;;;;;4.57;1.48;;;;;;;;;;5087703;28;20024;-39
2022/06/13 12:27:14;;;;;;;5.60;1.75;;;;;;;;;;5081435;28;20524;-40
2022/06/13 12:29:58;;;;;;;2.85;1.50;;;;;;;;;;5070856;28;20028;-42
2022/06/13 12:32:29;;;;;;;2.22;1.67;;;;;;;;;;5083190;28;20032;-38
2022/06/13 12:35:14;;;;;;;2.88;1.70;;;;;;;;;;5065452;28;20040;-41
2022/06/13 12:37:43;;;;;;;2.38;1.67;;;;;;;;;;5076333;28;20387;-39
2022/06/13 12:40:08;;;;;;;2.45;1.42;;;;;;;;;;5088666;28;20035;-39
2022/06/13 12:42:50;;;;;;;3.75;1.80;;;;;;;;;;5069039;28;20406;-39
2022/06/13 12:45:21;;;;;;;3.38;1.80;;;;;;;;;;5091498;28;20039;-39
2022/06/13 12:47:52;;;;;;;2.30;1.92;;;;;;;;;;5090684;28;20027;-39
2022/06/13 12:50:26;;;;;;;3.10;1.85;;;;;;;;;;5089604;28;20016;-39
2022/06/13 12:53:10;;;;;;;4.10;1.80;;;;;;;;;;5072795;28;20084;-40
2022/06/13 12:55:38;;;;;;;2.65;1.60;;;;;;;;;;5073817;28;20052;-44
2022/06/13 12:58:15;;;;;;;3.20;1.75;;;;;;;;;;5059867;28;20040;-38
2022/06/13 13:00:50;;;;;;;4.47;1.85;;;;;;;;;;5062447;28;20451;-38
2022/06/13 13:03:33;;;;;;;2.22;1.70;;;;;;;;;;5070477;28;20062;-38
2022/06/13 13:06:05;;;;;;;2.78;1.88;;;;;;;;;;5073371;28;20028;-40
2022/06/13 13:08:49;;;;;;;4.47;1.48;;;;;;;;;;5069022;28;20035;-43
2022/06/13 13:11:28;;;;;;;2.20;1.30;;;;;;;;;;5088958;28;20032;-40
2022/06/13 13:14:12;;;;;;;1.38;1.13;;;;;;;;;;5085999;28;20059;-41
2022/06/13 13:16:43;;;;;;;8.25;1.60;;;;;;;;;;5066487;28;20032;-39
2022/06/13 13:19:14;;;;;;;3.83;1.20;;;;;;;;;;5070156;28;20066;-40
2022/06/13 13:21:43;;;;;;;2.75;1.15;;;;;;;;;;5052457;28;20398;-45
2022/06/13 13:24:22;;;;;;;6.45;1.50;;;;;;;;;;5056702;28;20103;-39
2022/06/13 13:27:14;;;;;;;2.28;1.40;;;;;;;;;;5075216;28;20036;-43
2022/06/13 13:29:55;;;;;;;3.67;1.67;;;;;;;;;;5052210;28;20028;-43
2022/06/13 13:32:32;;;;;;;2.72;1.23;;;;;;;;;;5073787;28;20033;-38
2022/06/13 13:35:09;;;;;;;3.90;1.75;;;;;;;;;;5074494;28;20170;-39
2022/06/13 13:37:37;;;;;;;3.53;1.50;;;;;;;;;;5077282;28;20516;-38
2022/06/13 13:40:22;;;;;;;7.60;1.90;;;;;;;;;;5081806;28;20500;-43
2022/06/13 13:43:07;;;;;;;2.22;2.00;;;;;;;;;;5064450;28;20775;-40
2022/06/13 13:45:35;;;;;;;11.52;1.75;;;;;;;;;;5081481;28;20051;-38
2022/06/13 13:48:09;;;;;;;4.78;1.90;;;;;;;;;;5069664;28;20519;-39
2022/06/13 13:50:40;;;;;;;2.97;2.08;;;;;;;;;;5081530;28;20027;-40
2022/06/13 13:53:09;;;;;;;5.25;2.20;;;;;;;;;;5087647;28;20482;-40
2022/06/13 13:55:41;;;;;;;4.47;2.15;;;;;;;;;;5065501;28;20020;-38
2022/06/13 13:58:26;;;;;;;3.20;1.70;;;;;;;;;;5085028;28;20020;-38
2022/06/13 14:01:10;;;;;;;3.15;1.90;;;;;;;;;;5061128;28;20036;-39
2022/06/13 14:03:55;;;;;;;10.90;2.60;;;;;;;;;;5060205;28;20031;-37
2022/06/13 14:06:34;;;;;;;43.55;21.67;;;;;;;;;;5055317;28;20040;-38
2022/06/13 14:09:01;;;;;;;54.67;31.53;;;;;;;;;;5083643;28;20819;-38
2022/06/13 14:11:26;;;;;;;3.13;1.80;;;;;;;;;;5071486;28;20019;-37
2022/06/13 14:14:07;;;;;;;12.45;5.03;;;;;;;;;;5091976;28;20051;-40
2022/06/13 14:16:39;;;;;;;19.73;7.03;;;;;;;;;;5074878;28;20508;-38
2022/06/13 14:19:15;;;;;;;10.48;3.05;;;;;;;;;;5090002;28;20051;-39
2022/06/13 14:21:43;;;;;;;4.85;2.70;;;;;;;;;;5065172;28;20132;-38
2022/06/13 14:24:11;;;;;;;4.45;2.42;;;;;;;;;;5077668;28;20032;-39
2022/06/13 14:26:54;;;;;;;53.60;28.15;;;;;;;;;;5066067;28;20032;-38
2022/06/13 14:29:28;;;;;;;3.85;1.70;;;;;;;;;;5069344;28;20110;-37
2022/06/13 14:31:56;;;;;;;2.20;1.67;;;;;;;;;;5087669;28;20020;-40
2022/06/13 14:37:24;;;;;;;2.42;1.90;;;;;;;;;;5088533;28;20074;-39
2022/06/13 14:39:55;;;;;;;2.30;1.65;;;;;;;;;;5072112;28;20028;-38
2022/06/13 14:42:35;;;;;;;3.83;1.60;;;;;;;;;;5084984;28;20035;-43
2022/06/13 14:45:27;;;;;;;6.18;2.00;;;;;;;;;;5090413;28;20493;-39
2022/06/13 14:47:55;;;;;;;7.55;2.50;;;;;;;;;;5087994;28;20163;-38
2022/06/13 14:50:41;;;;;;;7.28;1.98;;;;;;;;;;5072264;28;20531;-37
2022/06/13 14:53:22;;;;;;;1.98;1.70;;;;;;;;;;5077437;28;20096;-42
2022/06/13 14:56:06;;;;;;;3.30;1.90;;;;;;;;;;5069791;28;20024;-37
2022/06/13 14:58:50;;;;;;;4.75;2.22;;;;;;;;;;5053526;28;20086;-37
2022/06/13 15:01:20;;;;;;;5.30;2.00;;;;;;;;;;5053260;28;20032;-37
2022/06/13 15:04:08;;;;;;;6.05;1.90;;;;;;;;;;5072279;28;20423;-38
2022/06/13 15:06:34;;;;;;;5.05;2.10;;;;;;;;;;5055992;28;20032;-38
2022/06/13 15:09:03;;;;;;;2.35;1.90;;;;;;;;;;5072445;28;20078;-38
2022/06/13 15:11:29;;;;;;;4.20;3.70;;;;;;;;;;5072695;28;20024;-38
2022/06/13 15:13:55;;;;;;;4.88;1.85;;;;;;;;;;5054832;28;20048;-38
2022/06/13 15:16:21;;;;;;;3.80;1.93;;;;;;;;;;5072835;28;20021;-37
2022/06/13 15:18:54;;;;;;;3.58;2.33;;;;;;;;;;5072799;28;20131;-38
2022/06/13 15:21:19;;;;;;;4.47;2.65;;;;;;;;;;5072693;28;20445;-37
2022/06/13 15:23:46;;;;;;;2.85;2.15;;;;;;;;;;5072544;28;20055;-39
2022/06/13 15:26:26;;;;;;;4.07;2.15;;;;;;;;;;5072197;28;20028;-39
2022/06/13 15:29:04;;;;;;;5.10;2.25;;;;;;;;;;5054730;28;20017;-38